Etter, Minnesota
Current Conditions -  °F | °C
As of 3:31 PM on Friday 24 Oct 2014 (Local Time) from KRGK Reporting Station
Overcast Overcast  
Wind Chill: 59°   Ceiling: 900
Heat Index: 59°   Visibility: 7mi
Dew Point: 55°   Wind: 5mph
Humidity: 88%   Direction: 230°SW
Pressure: 29.85"   Gusts: NA
Location:  44.6055°N, 92.7163°W
Report Text: KRGK 242031Z AUTO 23004KT 7SM OVC009 15/13 A2985 RMK AO2
Loading
Personal Weather Stations






























Interactive Weather Map
Tropical Storm Tracking
New forecast layout! Learn more

10-Day Weather Forecast

Advertisements
Track Severe Weather on mobile